Time,TemperatureF,DewpointF,PressureIn,WindDirection,WindDirectionDegrees,WindSpeedMPH,WindSpeedGustMPH,Humidity,HourlyPrecipIn,Conditions,Clouds,dailyrainin,SoftwareType,DateUTC
2013-09-13 00:01:00,54.1,52.7,29.82,NNE,29,0.0,0.0,95,0.00,,,0.13,meteohub,2013-09-13 06:01:00,
2013-09-13 00:07:00,54.1,52.7,29.82,NNE,29,0.0,0.0,95,0.00,,,0.00,meteohub,2013-09-13 06:07:00,
2013-09-13 00:13:00,54.1,52.7,29.82,NNE,29,0.0,0.0,95,0.00,,,0.00,meteohub,2013-09-13 06:13:00,
2013-09-13 00:19:00,54.3,52.9,29.82,NNE,29,0.0,0.0,95,0.00,,,0.00,meteohub,2013-09-13 06:19:00,
2013-09-13 00:25:00,54.3,52.9,29.82,NNE,29,0.0,0.0,95,0.00,,,0.00,meteohub,2013-09-13 06:25:00,
2013-09-13 00:31:00,54.3,52.9,29.82,NNE,29,0.0,0.0,95,0.00,,,0.00,meteohub,2013-09-13 06:31:00,
2013-09-13 00:37:00,54.3,52.9,29.82,NNE,29,0.0,0.0,95,0.01,,,0.01,meteohub,2013-09-13 06:37:00,
2013-09-13 00:43:00,54.1,52.7,29.82,NNE,29,0.0,0.0,95,0.02,,,0.02,meteohub,2013-09-13 06:43:00,
2013-09-13 00:49:00,54.1,52.7,29.82,NNE,29,0.0,2.0,95,0.03,,,0.02,meteohub,2013-09-13 06:49:00,
2013-09-13 00:55:00,54.0,52.5,29.82,NNE,29,0.0,3.0,95,0.06,,,0.06,meteohub,2013-09-13 06:55:00,
2013-09-13 01:01:00,54.0,52.9,29.81,NNE,29,0.0,3.0,96,0.07,,,0.07,meteohub,2013-09-13 07:01:00,
2013-09-13 01:07:00,53.8,52.3,29.81,NNE,29,0.0,3.0,95,0.08,,,0.08,meteohub,2013-09-13 07:07:00,
2013-09-13 01:13:00,53.8,52.7,29.81,NNE,29,1.0,2.0,96,0.09,,,0.09,meteohub,2013-09-13 07:13:00,
2013-09-13 01:19:00,53.8,52.7,29.81,NNE,29,1.0,2.0,96,0.10,,,0.10,meteohub,2013-09-13 07:19:00,
2013-09-13 01:25:00,53.8,52.7,29.81,NNE,29,1.0,3.0,96,0.12,,,0.12,meteohub,2013-09-13 07:25:00,
2013-09-13 01:31:00,53.8,52.7,29.81,NNE,29,3.0,3.0,96,0.13,,,0.13,meteohub,2013-09-13 07:31:00,
2013-09-13 01:37:00,53.4,52.3,29.81,NNE,29,0.0,3.0,96,0.13,,,0.14,meteohub,2013-09-13 07:37:00,
2013-09-13 01:43:00,53.4,52.3,29.80,NNE,29,1.0,3.0,96,0.13,,,0.15,meteohub,2013-09-13 07:43:00,
2013-09-13 01:49:00,53.4,52.3,29.80,NNE,29,0.0,3.0,96,0.13,,,0.16,meteohub,2013-09-13 07:49:00,
2013-09-13 01:55:00,53.2,52.2,29.80,NNE,29,2.0,3.0,96,0.10,,,0.16,meteohub,2013-09-13 07:55:00,
2013-09-13 02:01:00,53.2,52.2,29.80,NNE,29,0.0,3.0,96,0.08,,,0.16,meteohub,2013-09-13 08:01:00,
2013-09-13 02:07:00,53.2,52.2,29.80,NNE,29,0.0,3.0,96,0.07,,,0.16,meteohub,2013-09-13 08:07:00,
2013-09-13 02:13:00,53.2,52.2,29.80,NNE,29,0.0,3.0,96,0.07,,,0.17,meteohub,2013-09-13 08:13:00,
2013-09-13 02:19:00,53.2,52.2,29.80,NNE,29,0.0,3.0,96,0.06,,,0.17,meteohub,2013-09-13 08:19:00,
2013-09-13 02:25:00,53.2,52.2,29.80,NNE,29,0.0,0.0,96,0.04,,,0.17,meteohub,2013-09-13 08:25:00,
2013-09-13 02:31:00,53.2,52.2,29.80,NNE,29,0.0,0.0,96,0.04,,,0.18,meteohub,2013-09-13 08:31:00,
2013-09-13 02:37:00,53.2,52.2,29.80,NNE,29,0.0,1.0,96,0.05,,,0.19,meteohub,2013-09-13 08:37:00,
2013-09-13 02:43:00,53.1,52.0,29.80,NNE,29,0.0,1.0,96,0.05,,,0.20,meteohub,2013-09-13 08:43:00,
2013-09-13 02:49:00,53.1,52.0,29.80,NNE,29,1.0,3.0,96,0.05,,,0.21,meteohub,2013-09-13 08:49:00,
2013-09-13 02:55:00,52.9,51.8,29.79,NNE,29,0.0,3.0,96,0.06,,,0.22,meteohub,2013-09-13 08:55:00,
2013-09-13 03:02:00,52.9,51.8,29.79,NNE,29,0.0,3.0,96,0.06,,,0.22,meteohub,2013-09-13 09:02:00,
2013-09-13 03:08:00,53.1,52.2,29.79,NNE,29,0.0,3.0,97,0.05,,,0.22,meteohub,2013-09-13 09:08:00,
2013-09-13 03:14:00,53.1,52.2,29.79,NNE,29,0.0,3.0,97,0.05,,,0.22,meteohub,2013-09-13 09:14:00,
2013-09-13 03:20:00,53.1,52.2,29.79,NNE,29,0.0,3.0,97,0.05,,,0.22,meteohub,2013-09-13 09:20:00,
2013-09-13 03:26:00,53.1,52.2,29.79,NNE,29,0.0,3.0,97,0.06,,,0.23,meteohub,2013-09-13 09:26:00,
2013-09-13 03:32:00,53.1,52.2,29.79,NNE,29,2.0,2.0,97,0.04,,,0.23,meteohub,2013-09-13 09:32:00,
2013-09-13 03:38:00,52.9,51.8,29.79,NNE,29,0.0,3.0,96,0.03,,,0.23,meteohub,2013-09-13 09:38:00,
2013-09-13 03:44:00,52.5,51.1,29.79,NNE,29,1.0,3.0,95,0.03,,,0.23,meteohub,2013-09-13 09:44:00,
2013-09-13 03:50:00,52.3,50.9,29.79,NNE,29,0.0,4.0,95,0.02,,,0.23,meteohub,2013-09-13 09:50:00,
2013-09-13 03:56:00,52.2,50.7,29.79,NNE,29,0.0,4.0,95,0.01,,,0.23,meteohub,2013-09-13 09:56:00,
2013-09-13 04:02:00,52.2,50.7,29.79,NNE,29,0.0,4.0,95,0.01,,,0.23,meteohub,2013-09-13 10:02:00,
2013-09-13 04:08:00,52.2,50.7,29.79,NNE,29,0.0,4.0,95,0.01,,,0.23,meteohub,2013-09-13 10:08:00,
2013-09-13 04:14:00,52.2,50.7,29.79,NNE,29,2.0,3.0,95,0.01,,,0.23,meteohub,2013-09-13 10:14:00,
2013-09-13 04:20:00,52.2,50.7,29.79,NNE,29,0.0,3.0,95,0.00,,,0.23,meteohub,2013-09-13 10:20:00,
2013-09-13 04:26:00,52.3,50.9,29.79,NNE,29,3.0,4.0,95,0.00,,,0.23,meteohub,2013-09-13 10:26:00,
2013-09-13 04:32:00,52.2,50.5,29.79,WNW,291,3.0,5.0,94,0.01,,,0.24,meteohub,2013-09-13 10:32:00,
2013-09-13 04:38:00,52.2,49.8,29.79,West,268,7.0,7.0,92,0.01,,,0.24,meteohub,2013-09-13 10:38:00,
2013-09-13 04:44:00,52.2,49.6,29.79,WSW,251,0.0,10.0,91,0.01,,,0.24,meteohub,2013-09-13 10:44:00,
2013-09-13 04:50:00,51.6,49.1,29.79,SSE,167,4.0,10.0,91,0.03,,,0.28,meteohub,2013-09-13 10:50:00,
2013-09-13 04:56:00,51.3,49.1,29.79,SSE,167,3.0,7.0,92,0.09,,,0.32,meteohub,2013-09-13 10:56:00,
2013-09-13 05:02:00,51.1,49.1,29.79,SSE,168,4.0,7.0,93,0.11,,,0.33,meteohub,2013-09-13 11:02:00,
2013-09-13 05:08:00,51.1,49.5,29.79,South,172,3.0,7.0,94,0.11,,,0.34,meteohub,2013-09-13 11:08:00,
2013-09-13 05:14:00,50.9,49.3,29.79,SSW,194,5.0,7.0,94,0.12,,,0.35,meteohub,2013-09-13 11:14:00,
2013-09-13 05:20:00,51.1,49.6,29.79,SSW,211,3.0,7.0,95,0.13,,,0.36,meteohub,2013-09-13 11:20:00,
2013-09-13 05:26:00,51.1,49.5,29.79,SSW,211,3.0,7.0,94,0.14,,,0.37,meteohub,2013-09-13 11:26:00,
2013-09-13 05:32:00,51.1,49.5,29.79,SSW,211,4.0,7.0,94,0.14,,,0.38,meteohub,2013-09-13 11:32:00,
2013-09-13 05:38:00,51.3,49.8,29.79,SSW,211,2.0,5.0,95,0.15,,,0.39,meteohub,2013-09-13 11:38:00,
2013-09-13 05:44:00,51.4,50.0,29.78,SSW,211,0.0,5.0,95,0.17,,,0.41,meteohub,2013-09-13 11:44:00,
2013-09-13 05:50:00,51.4,50.0,29.77,SSW,211,0.0,4.0,95,0.14,,,0.44,meteohub,2013-09-13 11:50:00,
2013-09-13 05:56:00,51.3,49.8,29.77,SSW,211,0.0,3.0,95,0.12,,,0.45,meteohub,2013-09-13 11:56:00,
2013-09-13 06:02:00,51.3,49.8,29.79,SSW,211,1.0,3.0,95,0.12,,,0.46,meteohub,2013-09-13 12:02:00,
2013-09-13 06:08:00,51.3,49.8,29.79,SSW,211,2.0,3.0,95,0.11,,,0.46,meteohub,2013-09-13 12:08:00,
2013-09-13 06:14:00,51.3,49.8,29.79,SSW,211,2.0,4.0,95,0.11,,,0.46,meteohub,2013-09-13 12:14:00,
2013-09-13 06:20:00,51.3,50.2,29.79,SSW,211,0.0,4.0,96,0.09,,,0.46,meteohub,2013-09-13 12:20:00,
2013-09-13 06:26:00,51.3,50.2,29.79,SSW,211,0.0,4.0,96,0.09,,,0.47,meteohub,2013-09-13 12:26:00,
2013-09-13 06:32:00,51.1,50.0,29.78,SSW,211,0.0,3.0,96,0.10,,,0.48,meteohub,2013-09-13 12:32:00,
2013-09-13 06:38:00,51.1,49.6,29.78,SSW,211,0.0,0.0,95,0.09,,,0.48,meteohub,2013-09-13 12:38:00,
2013-09-13 06:45:00,50.7,49.6,29.79,SSW,211,0.0,0.0,96,0.07,,,0.48,meteohub,2013-09-13 12:45:00,
2013-09-13 06:51:00,51.1,50.0,29.79,SSW,211,0.0,2.0,96,0.03,,,0.48,meteohub,2013-09-13 12:51:00,
2013-09-13 06:57:00,51.1,50.0,29.79,SSW,211,0.0,2.0,96,0.02,,,0.48,meteohub,2013-09-13 12:57:00,
2013-09-13 07:03:00,51.1,50.0,29.79,SSW,211,0.0,2.0,96,0.02,,,0.48,meteohub,2013-09-13 13:03:00,
2013-09-13 07:09:00,51.1,50.0,29.79,SSW,211,0.0,2.0,96,0.02,,,0.48,meteohub,2013-09-13 13:09:00,
2013-09-13 07:15:00,51.1,50.0,29.79,SSW,211,0.0,2.0,96,0.02,,,0.48,meteohub,2013-09-13 13:15:00,
2013-09-13 07:21:00,51.1,50.0,29.80,SSW,211,0.0,0.0,96,0.01,,,0.48,meteohub,2013-09-13 13:21:00,
2013-09-13 07:27:00,50.9,49.8,29.80,SSW,211,0.0,0.0,96,0.01,,,0.48,meteohub,2013-09-13 13:27:00,
2013-09-13 07:33:00,50.9,49.8,29.80,SSW,211,0.0,0.0,96,0.00,,,0.48,meteohub,2013-09-13 13:33:00,
2013-09-13 07:39:00,51.1,50.0,29.79,SSW,207,0.0,0.0,96,0.00,,,0.48,meteohub,2013-09-13 13:39:00,
2013-09-13 07:45:00,51.3,50.4,29.79,SSW,207,0.0,0.0,97,0.00,,,0.48,meteohub,2013-09-13 13:45:00,
2013-09-13 07:51:00,51.3,50.4,29.79,SSW,207,0.0,1.0,97,0.00,,,0.48,meteohub,2013-09-13 13:51:00,
2013-09-13 07:57:00,51.3,50.2,29.79,SSW,207,1.0,1.0,96,0.00,,,0.48,meteohub,2013-09-13 13:57:00,
2013-09-13 08:03:00,51.1,50.0,29.78,SSW,207,0.0,3.0,96,0.00,,,0.48,meteohub,2013-09-13 14:03:00,
2013-09-13 08:09:00,51.1,50.0,29.78,SSW,207,0.0,3.0,96,0.00,,,0.48,meteohub,2013-09-13 14:09:00,
2013-09-13 08:15:00,51.3,50.4,29.78,SSW,207,1.0,1.0,97,0.00,,,0.48,meteohub,2013-09-13 14:15:00,
2013-09-13 08:21:00,52.0,51.1,29.78,SSW,207,1.0,4.0,97,0.00,,,0.48,meteohub,2013-09-13 14:21:00,
2013-09-13 08:27:00,52.3,51.3,29.78,SSW,207,3.0,5.0,96,0.00,,,0.48,meteohub,2013-09-13 14:27:00,
2013-09-13 08:33:00,52.5,50.9,29.78,SSW,207,2.0,5.0,94,0.00,,,0.48,meteohub,2013-09-13 14:33:00,
2013-09-13 08:39:00,52.5,50.5,29.78,SSW,207,5.0,5.0,93,0.00,,,0.48,meteohub,2013-09-13 14:39:00,
2013-09-13 08:45:00,52.9,51.3,29.79,SSW,207,2.0,6.0,94,0.00,,,0.48,meteohub,2013-09-13 14:45:00,
2013-09-13 08:51:00,53.8,51.8,29.79,SSW,207,5.0,6.0,93,0.00,,,0.48,meteohub,2013-09-13 14:51:00,
2013-09-13 08:57:00,54.3,51.4,29.79,SSW,207,0.0,6.0,90,0.00,,,0.48,meteohub,2013-09-13 14:57:00,
2013-09-13 09:03:00,54.7,51.4,29.79,SSW,207,2.0,6.0,89,0.00,,,0.48,meteohub,2013-09-13 15:03:00,
2013-09-13 09:09:00,55.0,51.8,29.78,SSW,207,2.0,7.0,89,0.00,,,0.48,meteohub,2013-09-13 15:09:00,
2013-09-13 09:15:00,55.6,52.2,29.79,SSW,207,3.0,3.0,88,0.00,,,0.48,meteohub,2013-09-13 15:15:00,
2013-09-13 09:21:00,55.6,51.8,29.79,SSW,207,1.0,7.0,87,0.00,,,0.48,meteohub,2013-09-13 15:21:00,
2013-09-13 09:27:00,56.1,52.0,29.78,SSW,207,3.0,7.0,86,0.00,,,0.48,meteohub,2013-09-13 15:27:00,
2013-09-13 09:33:00,56.7,51.8,29.78,SSE,158,4.0,7.0,84,0.00,,,0.48,meteohub,2013-09-13 15:33:00,
2013-09-13 09:39:00,57.4,52.0,29.78,SSE,154,4.0,8.0,82,0.00,,,0.48,meteohub,2013-09-13 15:39:00,
2013-09-13 09:45:00,57.6,51.8,29.78,SSE,151,5.0,10.0,81,0.00,,,0.48,meteohub,2013-09-13 15:45:00,
2013-09-13 09:51:00,57.9,52.7,29.78,SSE,153,7.0,10.0,83,0.00,,,0.48,meteohub,2013-09-13 15:51:00,
2013-09-13 09:57:00,58.1,52.0,29.78,SSE,152,3.0,10.0,80,0.00,,,0.48,meteohub,2013-09-13 15:57:00,
2013-09-13 10:03:00,58.5,52.3,29.78,SSE,151,4.0,9.0,80,0.00,,,0.48,meteohub,2013-09-13 16:03:00,
2013-09-13 10:09:00,58.6,52.2,29.78,SSE,152,8.0,9.0,79,0.00,,,0.48,meteohub,2013-09-13 16:09:00,
2013-09-13 10:15:00,58.6,51.8,29.78,SE,144,5.0,10.0,78,0.00,,,0.48,meteohub,2013-09-13 16:15:00,
2013-09-13 10:21:00,58.6,51.8,29.78,SSE,157,4.0,10.0,78,0.00,,,0.48,meteohub,2013-09-13 16:21:00,
2013-09-13 10:27:00,58.8,52.0,29.78,SE,137,3.0,10.0,78,0.00,,,0.48,meteohub,2013-09-13 16:27:00,
2013-09-13 10:33:00,59.0,52.9,29.78,SE,137,3.0,9.0,80,0.00,,,0.48,meteohub,2013-09-13 16:33:00,
2013-09-13 10:40:00,58.6,53.4,29.78,SE,125,7.0,9.0,83,0.00,,,0.48,meteohub,2013-09-13 16:40:00,
2013-09-13 10:46:00,58.1,52.3,29.78,SE,126,7.0,10.0,81,0.00,,,0.48,meteohub,2013-09-13 16:46:00,
2013-09-13 10:52:00,57.6,51.1,29.78,SE,145,8.0,12.0,79,0.00,,,0.48,meteohub,2013-09-13 16:52:00,
2013-09-13 10:58:00,57.4,51.3,29.78,SSE,149,5.0,12.0,80,0.00,,,0.48,meteohub,2013-09-13 16:58:00,
2013-09-13 11:04:00,57.2,51.4,29.78,SE,126,10.0,13.0,81,0.00,,,0.48,meteohub,2013-09-13 17:04:00,
2013-09-13 11:12:00,57.0,51.3,29.78,SE,131,6.0,13.0,81,0.00,,,0.48,meteohub,2013-09-13 17:12:00,
2013-09-13 11:19:00,56.5,51.6,29.78,SSW,200,7.0,11.0,84,0.00,,,0.48,meteohub,2013-09-13 17:19:00,
2013-09-13 11:25:00,56.3,51.3,29.78,SSE,168,10.0,12.0,83,0.00,,,0.48,meteohub,2013-09-13 17:25:00,
2013-09-13 11:31:00,56.1,51.1,29.78,South,184,11.0,12.0,83,0.00,,,0.48,meteohub,2013-09-13 17:31:00,
2013-09-13 11:37:00,56.3,51.3,29.78,South,185,5.0,12.0,83,0.00,,,0.48,meteohub,2013-09-13 17:37:00,
2013-09-13 11:43:00,56.5,51.4,29.77,South,189,7.0,14.0,83,0.00,,,0.48,meteohub,2013-09-13 17:43:00,
2013-09-13 11:49:00,56.7,51.6,29.77,South,187,7.0,14.0,83,0.00,,,0.48,meteohub,2013-09-13 17:49:00,
2013-09-13 11:55:00,57.0,51.6,29.77,SSE,163,9.0,13.0,82,0.00,,,0.48,meteohub,2013-09-13 17:55:00,
2013-09-13 12:01:00,57.2,52.2,29.77,South,186,10.0,13.0,83,0.00,,,0.48,meteohub,2013-09-13 18:01:00,
2013-09-13 12:07:00,57.2,51.4,29.77,South,173,11.0,15.0,81,0.00,,,0.48,meteohub,2013-09-13 18:07:00,
2013-09-13 12:13:00,57.4,51.6,29.76,South,172,9.0,17.0,81,0.00,,,0.48,meteohub,2013-09-13 18:13:00,
2013-09-13 12:19:00,57.6,51.8,29.76,South,180,11.0,18.0,81,0.00,,,0.48,meteohub,2013-09-13 18:19:00,
2013-09-13 12:25:00,57.7,51.3,29.76,South,182,11.0,18.0,79,0.00,,,0.48,meteohub,2013-09-13 18:25:00,
2013-09-13 12:31:00,58.3,51.4,29.75,South,172,6.0,17.0,78,0.00,,,0.48,meteohub,2013-09-13 18:31:00,
2013-09-13 12:37:00,58.6,51.4,29.75,South,180,10.0,17.0,77,0.00,,,0.48,meteohub,2013-09-13 18:37:00,
2013-09-13 12:43:00,59.2,52.0,29.75,South,191,6.0,16.0,77,0.00,,,0.48,meteohub,2013-09-13 18:43:00,
2013-09-13 12:49:00,59.5,52.0,29.75,South,188,6.0,16.0,76,0.00,,,0.48,meteohub,2013-09-13 18:49:00,
2013-09-13 12:55:00,59.5,52.0,29.75,SSW,195,7.0,16.0,76,0.00,,,0.48,meteohub,2013-09-13 18:55:00,
2013-09-13 13:01:00,59.5,52.0,29.75,SSW,197,7.0,16.0,76,0.00,,,0.48,meteohub,2013-09-13 19:01:00,
2013-09-13 13:07:00,59.5,51.6,29.75,South,177,10.0,15.0,75,0.00,,,0.48,meteohub,2013-09-13 19:07:00,
2013-09-13 13:13:00,59.5,51.6,29.75,South,180,13.0,15.0,75,0.00,,,0.48,meteohub,2013-09-13 19:13:00,
2013-09-13 13:19:00,59.5,51.6,29.75,South,185,11.0,18.0,75,0.00,,,0.48,meteohub,2013-09-13 19:19:00,
2013-09-13 13:25:00,59.7,51.4,29.75,SSW,205,11.0,18.0,74,0.00,,,0.48,meteohub,2013-09-13 19:25:00,
2013-09-13 13:32:00,59.5,52.0,29.74,South,178,8.0,18.0,76,0.00,,,0.48,meteohub,2013-09-13 19:32:00,
2013-09-13 13:38:00,59.7,52.5,29.74,SSW,202,9.0,18.0,77,0.00,,,0.48,meteohub,2013-09-13 19:38:00,
2013-09-13 13:44:00,59.9,52.3,29.74,South,171,10.0,18.0,76,0.00,,,0.48,meteohub,2013-09-13 19:44:00,
2013-09-13 13:50:00,59.9,51.6,29.73,South,185,7.0,18.0,74,0.00,,,0.48,meteohub,2013-09-13 19:50:00,
2013-09-13 13:56:00,60.1,52.5,29.73,South,191,10.0,17.0,76,0.00,,,0.48,meteohub,2013-09-13 19:56:00,
2013-09-13 14:02:00,59.9,51.6,29.73,SSW,193,8.0,17.0,74,0.00,,,0.48,meteohub,2013-09-13 20:02:00,
2013-09-13 14:08:00,59.9,52.0,29.73,SSW,200,7.0,17.0,75,0.00,,,0.48,meteohub,2013-09-13 20:08:00,
2013-09-13 14:14:00,60.1,51.8,29.73,South,190,11.0,17.0,74,0.00,,,0.48,meteohub,2013-09-13 20:14:00,
2013-09-13 14:20:00,60.3,51.6,29.72,SSW,199,9.0,17.0,73,0.00,,,0.48,meteohub,2013-09-13 20:20:00,
2013-09-13 14:26:00,60.4,52.2,29.73,SSW,204,7.0,17.0,74,0.00,,,0.48,meteohub,2013-09-13 20:26:00,
2013-09-13 14:32:00,60.6,51.6,29.72,South,183,14.0,17.0,72,0.00,,,0.48,meteohub,2013-09-13 20:32:00,
2013-09-13 14:38:00,60.6,52.0,29.72,SSW,201,8.0,15.0,73,0.00,,,0.48,meteohub,2013-09-13 20:38:00,
2013-09-13 14:44:00,61.0,52.0,29.72,South,175,10.0,15.0,72,0.00,,,0.48,meteohub,2013-09-13 20:44:00,
2013-09-13 14:50:00,61.0,52.0,29.72,South,188,10.0,14.0,72,0.00,,,0.48,meteohub,2013-09-13 20:50:00,
2013-09-13 14:56:00,61.2,51.3,29.72,SSW,212,9.0,16.0,70,0.00,,,0.48,meteohub,2013-09-13 20:56:00,
2013-09-13 15:02:00,61.2,50.9,29.71,SSW,197,6.0,18.0,69,0.00,,,0.48,meteohub,2013-09-13 21:02:00,
2013-09-13 15:08:00,60.8,50.5,29.71,SSW,195,8.0,18.0,69,0.00,,,0.48,meteohub,2013-09-13 21:08:00,
2013-09-13 15:14:00,60.6,50.7,29.71,South,190,10.0,18.0,70,0.00,,,0.48,meteohub,2013-09-13 21:14:00,
2013-09-13 15:20:00,60.6,50.0,29.71,SSW,196,8.0,16.0,68,0.00,,,0.48,meteohub,2013-09-13 21:20:00,
2013-09-13 15:26:00,60.4,51.4,29.71,South,184,14.0,19.0,72,0.00,,,0.48,meteohub,2013-09-13 21:26:00,
2013-09-13 15:32:00,60.3,52.0,29.71,South,186,16.0,21.0,74,0.00,,,0.48,meteohub,2013-09-13 21:32:00,
2013-09-13 15:38:00,59.9,51.6,29.71,South,188,12.0,21.0,74,0.00,,,0.48,meteohub,2013-09-13 21:38:00,
2013-09-13 15:44:00,59.5,51.3,29.71,SSW,193,15.0,21.0,74,0.00,,,0.48,meteohub,2013-09-13 21:44:00,
2013-09-13 15:50:00,59.2,50.9,29.71,South,188,11.0,16.0,74,0.00,,,0.48,meteohub,2013-09-13 21:50:00,
2013-09-13 15:56:00,58.5,50.5,29.71,SSW,193,7.0,20.0,75,0.00,,,0.48,meteohub,2013-09-13 21:56:00,
2013-09-13 16:02:00,58.3,50.7,29.72,SSW,206,17.0,20.0,76,0.00,,,0.48,meteohub,2013-09-13 22:02:00,
2013-09-13 16:08:00,57.7,50.5,29.72,SSW,193,13.0,21.0,77,0.00,,,0.48,meteohub,2013-09-13 22:08:00,
2013-09-13 16:14:00,57.7,50.9,29.71,SSE,168,13.0,21.0,78,0.00,,,0.48,meteohub,2013-09-13 22:14:00,
2013-09-13 16:20:00,57.6,50.4,29.71,SSW,193,13.0,22.0,77,0.00,,,0.48,meteohub,2013-09-13 22:20:00,
2013-09-13 16:26:00,57.4,50.5,29.71,South,184,11.0,23.0,78,0.00,,,0.48,meteohub,2013-09-13 22:26:00,
2013-09-13 16:32:00,57.2,50.4,29.71,SSW,195,10.0,23.0,78,0.00,,,0.48,meteohub,2013-09-13 22:32:00,
2013-09-13 16:38:00,56.7,50.2,29.71,South,185,10.0,23.0,79,0.00,,,0.48,meteohub,2013-09-13 22:38:00,
2013-09-13 16:44:00,56.1,49.6,29.70,SSW,195,18.0,22.0,79,0.00,,,0.48,meteohub,2013-09-13 22:44:00,
2013-09-13 16:51:00,55.9,49.5,29.71,SSW,199,9.0,22.0,79,0.00,,,0.48,meteohub,2013-09-13 22:51:00,
2013-09-13 16:57:00,55.9,49.5,29.70,South,172,12.0,23.0,79,0.00,,,0.48,meteohub,2013-09-13 22:57:00,
2013-09-13 17:02:00,55.8,49.3,29.70,South,174,17.0,23.0,79,0.00,,,0.48,meteohub,2013-09-13 23:02:00,
2013-09-13 17:09:00,55.6,48.6,29.70,SSE,156,11.0,23.0,77,0.00,,,0.48,meteohub,2013-09-13 23:09:00,
2013-09-13 17:15:00,55.6,48.9,29.71,SSW,195,14.0,21.0,78,0.00,,,0.48,meteohub,2013-09-13 23:15:00,
2013-09-13 17:21:00,56.1,49.3,29.71,SW,231,10.0,21.0,78,0.00,,,0.48,meteohub,2013-09-13 23:21:00,
2013-09-13 17:27:00,57.7,50.2,29.71,SSW,193,16.0,17.0,76,0.00,,,0.48,meteohub,2013-09-13 23:27:00,
2013-09-13 17:33:00,57.6,49.3,29.70,South,189,17.0,17.0,74,0.00,,,0.48,meteohub,2013-09-13 23:33:00,
2013-09-13 17:39:00,57.9,49.3,29.70,South,185,14.0,17.0,73,0.00,,,0.48,meteohub,2013-09-13 23:39:00,
2013-09-13 17:45:00,57.4,49.1,29.70,South,191,21.0,21.0,74,0.00,,,0.48,meteohub,2013-09-13 23:45:00,
2013-09-13 17:51:00,57.7,49.1,29.69,SSW,194,15.0,23.0,73,0.00,,,0.48,meteohub,2013-09-13 23:51:00,
2013-09-13 17:57:00,57.7,48.7,29.69,South,187,20.0,23.0,72,0.00,,,0.48,meteohub,2013-09-13 23:57:00,
2013-09-13 18:03:00,57.6,48.9,29.69,South,176,14.0,22.0,73,0.00,,,0.48,meteohub,2013-09-14 00:03:00,
2013-09-13 18:09:00,57.4,48.4,29.69,SSW,193,11.0,22.0,72,0.00,,,0.48,meteohub,2013-09-14 00:09:00,
2013-09-13 18:15:00,56.7,48.0,29.69,SSW,195,12.0,22.0,73,0.00,,,0.48,meteohub,2013-09-14 00:15:00,
2013-09-13 18:21:00,56.7,48.0,29.69,SSW,210,12.0,22.0,73,0.00,,,0.48,meteohub,2013-09-14 00:21:00,
2013-09-13 18:27:00,56.7,48.0,29.70,SSW,205,17.0,22.0,73,0.00,,,0.48,meteohub,2013-09-14 00:27:00,
2013-09-13 18:33:00,56.1,48.4,29.70,SSW,210,15.0,22.0,75,0.00,,,0.48,meteohub,2013-09-14 00:33:00,
2013-09-13 18:39:00,55.9,48.6,29.70,SSW,203,13.0,21.0,76,0.00,,,0.48,meteohub,2013-09-14 00:39:00,
2013-09-13 18:45:00,55.4,48.4,29.70,SSW,204,8.0,21.0,77,0.00,,,0.48,meteohub,2013-09-14 00:45:00,
2013-09-13 18:51:00,55.0,48.4,29.70,South,187,7.0,21.0,78,0.00,,,0.48,meteohub,2013-09-14 00:51:00,
2013-09-13 18:57:00,54.5,48.2,29.69,SSW,197,11.0,19.0,79,0.00,,,0.48,meteohub,2013-09-14 00:57:00,
2013-09-13 19:03:00,54.3,48.0,29.70,SSW,198,7.0,21.0,79,0.00,,,0.48,meteohub,2013-09-14 01:03:00,
2013-09-13 19:09:00,54.3,48.2,29.70,South,187,11.0,21.0,80,0.00,,,0.48,meteohub,2013-09-14 01:09:00,
2013-09-13 19:15:00,54.1,47.8,29.70,SSW,210,7.0,25.0,79,0.00,,,0.48,meteohub,2013-09-14 01:15:00,
2013-09-13 19:21:00,54.0,47.7,29.70,SSW,199,15.0,23.0,79,0.00,,,0.48,meteohub,2013-09-14 01:21:00,
2013-09-13 19:27:00,54.0,47.7,29.70,South,189,11.0,24.0,79,0.00,,,0.48,meteohub,2013-09-14 01:27:00,
2013-09-13 19:33:00,53.8,47.8,29.70,SSW,207,9.0,24.0,80,0.00,,,0.48,meteohub,2013-09-14 01:33:00,
2013-09-13 19:39:00,53.6,47.7,29.70,SSW,199,13.0,24.0,80,0.00,,,0.48,meteohub,2013-09-14 01:39:00,
2013-09-13 19:45:00,53.6,47.3,29.71,SSW,213,7.0,19.0,79,0.00,,,0.48,meteohub,2013-09-14 01:45:00,
2013-09-13 19:51:00,53.4,47.5,29.71,SW,217,13.0,19.0,80,0.00,,,0.48,meteohub,2013-09-14 01:51:00,
2013-09-13 19:57:00,53.2,47.3,29.71,SSW,207,8.0,19.0,80,0.00,,,0.48,meteohub,2013-09-14 01:57:00,
2013-09-13 20:03:00,53.2,47.3,29.72,South,185,13.0,19.0,80,0.00,,,0.48,meteohub,2013-09-14 02:03:00,
2013-09-13 20:09:00,53.2,47.3,29.73,South,182,6.0,21.0,80,0.00,,,0.48,meteohub,2013-09-14 02:09:00,
2013-09-13 20:15:00,53.2,47.3,29.73,SW,217,11.0,21.0,80,0.00,,,0.48,meteohub,2013-09-14 02:15:00,
2013-09-13 20:21:00,53.1,47.3,29.73,SSW,195,12.0,19.0,81,0.00,,,0.48,meteohub,2013-09-14 02:21:00,
2013-09-13 20:27:00,52.9,47.3,29.73,SSW,193,14.0,19.0,81,0.00,,,0.48,meteohub,2013-09-14 02:27:00,
2013-09-13 20:33:00,52.9,47.3,29.74,South,183,7.0,19.0,81,0.00,,,0.48,meteohub,2013-09-14 02:33:00,
2013-09-13 20:39:00,52.9,47.3,29.74,SW,216,5.0,19.0,81,0.00,,,0.48,meteohub,2013-09-14 02:39:00,
2013-09-13 20:46:00,52.9,47.3,29.74,SW,232,10.0,13.0,81,0.00,,,0.48,meteohub,2013-09-14 02:46:00,
2013-09-13 20:52:00,52.9,47.3,29.74,SW,214,7.0,15.0,81,0.00,,,0.48,meteohub,2013-09-14 02:52:00,
2013-09-13 20:58:00,52.7,47.1,29.74,SSW,213,10.0,15.0,81,0.00,,,0.48,meteohub,2013-09-14 02:58:00,
2013-09-13 21:04:00,52.7,47.3,29.74,SSW,196,10.0,15.0,82,0.00,,,0.48,meteohub,2013-09-14 03:04:00,
2013-09-13 21:10:00,52.7,47.3,29.75,WSW,237,10.0,14.0,82,0.00,,,0.48,meteohub,2013-09-14 03:10:00,
2013-09-13 21:16:00,52.5,47.1,29.74,SSW,201,9.0,16.0,82,0.00,,,0.48,meteohub,2013-09-14 03:16:00,
2013-09-13 21:22:00,52.5,47.1,29.75,SSW,212,12.0,16.0,82,0.00,,,0.48,meteohub,2013-09-14 03:22:00,
2013-09-13 21:28:00,52.3,46.9,29.75,SSW,194,12.0,19.0,82,0.00,,,0.48,meteohub,2013-09-14 03:28:00,
2013-09-13 21:34:00,52.3,46.9,29.74,SSW,202,7.0,19.0,82,0.00,,,0.48,meteohub,2013-09-14 03:34:00,
2013-09-13 21:40:00,52.2,46.8,29.75,SW,222,9.0,19.0,82,0.00,,,0.48,meteohub,2013-09-14 03:40:00,
2013-09-13 21:46:00,52.2,46.8,29.75,SW,232,14.0,18.0,82,0.00,,,0.48,meteohub,2013-09-14 03:46:00,
2013-09-13 21:52:00,52.3,46.9,29.75,SW,220,9.0,19.0,82,0.00,,,0.48,meteohub,2013-09-14 03:52:00,
2013-09-13 21:58:00,52.3,46.8,29.75,SSW,210,7.0,19.0,81,0.00,,,0.48,meteohub,2013-09-14 03:58:00,
2013-09-13 22:01:00,52.5,46.6,29.75,WSW,253,8.0,19.0,80,0.00,,,0.48,meteohub,2013-09-14 04:01:00,
2013-09-13 22:02:00,52.5,46.6,29.75,SW,232,5.0,19.0,80,0.00,,,0.48,meteohub,2013-09-14 04:02:00,
2013-09-13 22:04:00,52.5,46.6,29.75,SSW,204,8.0,19.0,80,0.00,,,0.48,meteohub,2013-09-14 04:04:00,
2013-09-13 22:10:00,52.5,46.6,29.75,SSW,195,12.0,19.0,80,0.00,,,0.48,meteohub,2013-09-14 04:10:00,
2013-09-13 22:16:00,52.5,46.2,29.75,SSW,203,7.0,12.0,79,0.00,,,0.48,meteohub,2013-09-14 04:16:00,
2013-09-13 22:22:00,52.5,46.2,29.76,SSW,205,6.0,17.0,79,0.00,,,0.48,meteohub,2013-09-14 04:22:00,
2013-09-13 22:28:00,52.3,46.4,29.76,SSW,206,5.0,17.0,80,0.00,,,0.48,meteohub,2013-09-14 04:28:00,
2013-09-13 22:34:00,52.3,46.4,29.76,SW,228,4.0,17.0,80,0.00,,,0.48,meteohub,2013-09-14 04:34:00,
2013-09-13 22:40:00,52.3,46.4,29.76,SSW,193,8.0,11.0,80,0.00,,,0.48,meteohub,2013-09-14 04:40:00,
2013-09-13 22:42:00,52.3,46.4,29.76,SSW,207,7.0,11.0,80,0.00,,,0.48,meteohub,2013-09-14 04:42:00,
2013-09-13 22:49:00,52.3,46.8,29.77,South,188,6.0,13.0,81,0.00,,,0.48,meteohub,2013-09-14 04:49:00,
2013-09-13 22:55:00,52.2,46.6,29.77,SSW,193,4.0,13.0,81,0.00,,,0.48,meteohub,2013-09-14 04:55:00,
2013-09-13 23:01:00,52.2,46.6,29.77,SSW,211,8.0,14.0,81,0.00,,,0.48,meteohub,2013-09-14 05:01:00,
2013-09-13 23:07:00,52.3,46.8,29.77,SSW,209,11.0,14.0,81,0.00,,,0.48,meteohub,2013-09-14 05:07:00,
2013-09-13 23:13:00,52.3,46.8,29.77,SSW,200,4.0,14.0,81,0.00,,,0.48,meteohub,2013-09-14 05:13:00,
2013-09-13 23:19:00,52.3,46.8,29.76,SSW,204,8.0,14.0,81,0.00,,,0.48,meteohub,2013-09-14 05:19:00,
2013-09-13 23:25:00,52.7,46.8,29.76,SSW,192,13.0,14.0,80,0.00,,,0.48,meteohub,2013-09-14 05:25:00,
2013-09-13 23:31:00,52.9,46.9,29.76,SW,223,13.0,15.0,80,0.00,,,0.48,meteohub,2013-09-14 05:31:00,
2013-09-13 23:37:00,53.1,46.8,29.76,SSW,204,9.0,19.0,79,0.00,,,0.48,meteohub,2013-09-14 05:37:00,
2013-09-13 23:43:00,53.1,47.1,29.76,SSW,197,8.0,19.0,80,0.00,,,0.48,meteohub,2013-09-14 05:43:00,
2013-09-13 23:49:00,53.1,47.1,29.76,SSW,201,8.0,19.0,80,0.00,,,0.48,meteohub,2013-09-14 05:49:00,
2013-09-13 23:55:00,53.1,47.1,29.75,South,169,13.0,17.0,80,0.00,,,0.48,meteohub,2013-09-14 05:55:00,